Time;durP1;ratioP1;P1;durP2;ratioP2;P2;SDS_P1;SDS_P2;PMS_P1;PMS_P2;Temp;Humidity;BMP_temperature;BMP_pressure;BME280_temperature;BME280_humidity;BME280_pressure;Samples;Min_cycle;Max_cycle;Signal;HPM_P1;HPM_P2
2022/02/01 00:00:33;;;;;;;60.20;23.60;;;;;;;0.88;68.10;97891.98;107066;1274;111407;-68
2022/02/01 00:03:03;;;;;;;64.60;24.50;;;;;;;0.86;68.07;97890.48;106044;1274;96372;-68
2022/02/01 00:05:38;;;;;;;68.00;24.40;;;;;;;0.85;68.16;97892.48;106014;1274;108272;-67
2022/02/01 00:08:27;;;;;;;66.20;26.70;;;;;;;0.80;67.99;97892.76;105954;1274;97957;-67
2022/02/01 00:11:53;;;;;;;70.20;24.60;;;;;;;0.74;67.93;97900.88;105974;1274;96223;-68
2022/02/01 00:14:00;;;;;;;71.10;25.80;;;;;;;0.69;67.98;97901.17;105914;1274;111632;-68
2022/02/01 00:33:35;;;;;;;73.50;30.30;;;;;;;0.38;68.18;97925.41;105887;1274;108162;-69
2022/02/01 00:36:17;;;;;;;69.00;27.80;;;;;;;0.37;68.23;97932.39;105912;1276;97880;-70
2022/02/01 00:38:58;;;;;;;71.40;27.90;;;;;;;0.38;68.39;97932.54;106060;1274;95250;-69
2022/02/01 00:41:35;;;;;;;76.80;29.20;;;;;;;0.39;68.38;97940.17;105976;1274;112242;-69
2022/02/01 00:44:03;;;;;;;84.40;30.10;;;;;;;0.38;68.33;97938.46;105980;1274;98432;-68
2022/02/01 00:46:34;;;;;;;76.70;28.20;;;;;;;0.39;68.25;97941.23;105966;1274;108366;-68
2022/02/01 00:49:02;;;;;;;73.80;29.10;;;;;;;0.41;68.50;97937.79;105992;1274;97999;-67
2022/02/01 00:51:30;;;;;;;71.40;30.40;;;;;;;0.42;68.45;97935.79;105975;1276;97838;-68
2022/02/01 00:53:58;;;;;;;68.00;27.00;;;;;;;0.43;68.47;97932.77;105977;1274;114265;-69
2022/02/01 00:56:26;;;;;;;72.60;29.20;;;;;;;0.43;68.49;97933.33;106118;1274;97855;-67
2022/02/01 00:58:54;;;;;;;66.00;26.10;;;;;;;0.44;68.44;97934.14;106117;1274;108088;-67
2022/02/01 01:01:22;;;;;;;73.70;28.50;;;;;;;0.46;68.62;97935.64;106052;1274;95401;-69
2022/02/01 01:03:51;;;;;;;66.60;26.10;;;;;;;0.48;68.80;97929.97;106148;1274;97888;-69
2022/02/01 01:06:20;;;;;;;62.10;25.10;;;;;;;0.48;68.74;97928.74;106137;1274;111962;-67
2022/02/01 01:08:48;;;;;;;61.70;24.70;;;;;;;0.49;68.67;97935.14;106127;1274;96335;-68
2022/02/01 01:11:17;;;;;;;61.80;27.90;;;;;;;0.49;68.71;97931.13;106091;1274;108591;-68
2022/02/01 01:14:19;;;;;;;58.60;24.80;;;;;;;0.49;68.63;97939.29;106182;1274;97911;-67
2022/02/01 01:44:26;;;;;;;75.70;24.60;;;;;;;0.41;68.97;97940.39;106135;1273;95340;-69
2022/02/01 01:55:25;;;;;;;70.80;25.80;;;;;;;0.45;69.04;97937.26;106006;1274;97883;-68
2022/02/01 01:57:53;;;;;;;66.70;24.20;;;;;;;0.45;69.08;97935.14;106104;1274;97788;-66
2022/02/01 02:00:39;;;;;;;63.10;25.50;;;;;;;0.44;69.08;97939.19;106031;1274;112032;-70
2022/02/01 02:03:08;;;;;;;56.30;21.50;;;;;;;0.43;69.05;97943.10;106062;1274;97857;-71
2022/02/01 02:05:36;;;;;;;60.00;22.90;;;;;;;0.41;69.13;97948.23;106024;1274;108268;-69
2022/02/01 02:08:06;;;;;;;61.70;23.30;;;;;;;0.40;69.09;97948.98;105999;1274;97864;-68
2022/02/01 02:10:41;;;;;;;65.70;24.70;;;;;;;0.39;69.16;97944.52;106032;1274;96390;-68
2022/02/01 02:16:01;;;;;;;58.90;24.60;;;;;;;0.40;69.34;97952.14;106090;1274;95272;-68
2022/02/01 02:18:33;;;;;;;60.90;23.20;;;;;;;0.41;69.32;97962.18;106069;1274;108269;-67
2022/02/01 02:21:03;;;;;;;60.50;24.70;;;;;;;0.40;69.28;97967.31;106128;1274;97848;-68
2022/02/01 02:23:31;;;;;;;58.70;23.30;;;;;;;0.43;69.30;97971.54;106059;1274;97974;-69
2022/02/01 02:26:04;;;;;;;55.70;19.90;;;;;;;0.47;69.57;97973.27;106063;1274;112119;-67
2022/02/01 02:28:34;;;;;;;49.70;18.50;;;;;;;0.49;69.43;97977.01;106185;1274;95174;-67
2022/02/01 02:31:02;;;;;;;47.30;17.60;;;;;;;0.50;69.34;97976.24;106063;1274;108424;-68
2022/02/01 02:33:32;;;;;;;50.10;17.40;;;;;;;0.50;69.44;97975.73;106071;1274;98039;-70
2022/02/01 02:36:11;;;;;;;45.90;17.30;;;;;;;0.51;69.36;97978.63;105985;1276;97849;-70
2022/02/01 02:38:45;;;;;;;47.10;17.70;;;;;;;0.54;69.36;97988.09;106055;1274;112115;-69
2022/02/01 02:46:44;;;;;;;39.30;13.80;;;;;;;0.55;69.49;97997.45;106008;1274;95284;-68
2022/02/01 02:49:15;;;;;;;33.50;12.70;;;;;;;0.55;69.32;97998.67;106077;1274;97939;-68
2022/02/01 02:51:43;;;;;;;32.80;12.20;;;;;;;0.54;69.37;97995.27;106118;1274;111736;-68
2022/02/01 02:54:15;;;;;;;36.60;11.20;;;;;;;0.52;69.34;97997.43;106062;1274;97882;-68
2022/02/01 02:56:55;;;;;;;32.80;10.10;;;;;;;0.52;69.37;98001.29;106092;1274;108186;-68
2022/02/01 02:59:25;;;;;;;38.70;11.10;;;;;;;0.53;69.44;98001.57;106142;1274;97927;-68
2022/02/01 03:01:54;;;;;;;36.00;11.40;;;;;;;0.53;69.39;98008.52;106083;1274;95272;-70
2022/02/01 03:04:28;;;;;;;33.30;12.70;;;;;;;0.54;69.53;98012.34;106002;1274;111672;-69
2022/02/01 03:06:57;;;;;;;37.10;13.50;;;;;;;0.56;69.51;98016.61;106042;1274;97893;-69
2022/02/01 03:09:26;;;;;;;38.50;13.70;;;;;;;0.56;69.52;98018.15;106047;1274;107710;-66
2022/02/01 03:11:58;;;;;;;36.00;13.20;;;;;;;0.57;69.44;98020.38;106022;1274;97896;-67
2022/02/01 03:19:58;;;;;;;33.80;10.60;;;;;;;0.58;69.32;98033.07;106054;1274;97985;-68
2022/02/01 03:22:31;;;;;;;29.80;9.80;;;;;;;0.59;69.47;98036.52;106128;1274;108447;-66
2022/02/01 03:25:01;;;;;;;31.10;10.50;;;;;;;0.57;69.55;98036.59;106172;1274;97975;-68
2022/02/01 03:27:29;;;;;;;28.80;9.20;;;;;;;0.57;69.35;98038.20;106239;1274;97951;-68
2022/02/01 03:29:57;;;;;;;33.70;9.40;;;;;;;0.56;69.51;98041.01;106061;1274;112042;-68
2022/02/01 03:32:25;;;;;;;31.40;9.20;;;;;;;0.56;69.50;98044.35;105932;1274;300072;-67
2022/02/01 03:34:53;;;;;;;28.70;8.80;;;;;;;0.56;69.64;98051.16;106226;1274;108318;-68
2022/02/01 03:37:22;;;;;;;30.10;9.70;;;;;;;0.55;69.49;98054.00;106072;1274;95361;-69
2022/02/01 03:39:51;;;;;;;28.90;8.50;;;;;;;0.55;69.62;98055.73;106150;1274;97924;-69
2022/02/01 03:42:20;;;;;;;25.80;8.40;;;;;;;0.55;69.52;98060.23;106026;1274;111862;-68
2022/02/01 03:44:49;;;;;;;27.70;8.60;;;;;;;0.54;69.32;98062.04;106106;1274;97883;-69
2022/02/01 03:47:18;;;;;;;27.00;8.20;;;;;;;0.54;69.45;98063.77;106135;1274;108392;-68
2022/02/01 03:49:46;;;;;;;26.20;8.00;;;;;;;0.54;69.33;98064.67;106098;1274;97749;-68
2022/02/01 03:52:14;;;;;;;24.60;7.40;;;;;;;0.53;69.35;98064.38;106109;1276;97883;-66
2022/02/01 03:54:42;;;;;;;23.10;7.20;;;;;;;0.52;69.32;98069.33;106095;1274;111732;-67
2022/02/01 03:57:15;;;;;;;23.90;8.00;;;;;;;0.50;69.38;98075.30;106124;1274;97634;-67
2022/02/01 03:59:44;;;;;;;28.70;8.80;;;;;;;0.50;69.28;98076.19;106124;1274;107762;-67
2022/02/01 04:02:15;;;;;;;28.80;8.20;;;;;;;0.51;69.44;98077.05;106124;1274;98061;-68
2022/02/01 04:04:48;;;;;;;25.70;7.00;;;;;;;0.50;69.44;98080.20;106082;1274;97870;-69
2022/02/01 04:07:15;;;;;;;26.70;8.50;;;;;;;0.50;69.41;98080.39;106065;1274;112034;-68
2022/02/01 04:09:43;;;;;;;30.80;8.00;;;;;;;0.49;69.44;98080.07;106138;1276;97889;-67
2022/02/01 04:12:11;;;;;;;28.90;8.90;;;;;;;0.49;69.39;98074.69;106040;1274;110543;-68
2022/02/01 04:14:39;;;;;;;40.30;11.90;;;;;;;0.48;69.36;98074.39;106016;1274;95328;-67
2022/02/01 04:17:12;;;;;;;39.10;11.40;;;;;;;0.44;69.22;98083.61;106032;1274;97881;-67
2022/02/01 04:19:40;;;;;;;34.30;10.00;;;;;;;0.42;69.38;98082.51;106091;1274;112043;-69
2022/02/01 04:22:08;;;;;;;31.10;8.30;;;;;;;0.41;69.27;98083.39;106061;1274;97874;-69
2022/02/01 04:24:46;;;;;;;28.80;8.60;;;;;;;0.40;69.32;98083.83;106029;1274;107748;-68
2022/02/01 04:27:33;;;;;;;29.60;8.80;;;;;;;0.39;69.25;98081.95;106084;1274;97992;-67
2022/02/01 04:30:08;;;;;;;27.10;7.70;;;;;;;0.35;69.23;98079.54;106199;1274;97905;-68
2022/02/01 04:32:44;;;;;;;28.30;9.80;;;;;;;0.32;69.08;98082.61;106203;1274;111086;-66
2022/02/01 04:35:15;;;;;;;26.10;7.30;;;;;;;0.29;69.14;98088.84;106078;1274;97851;-68
2022/02/01 04:37:44;;;;;;;25.70;7.40;;;;;;;0.25;69.15;98089.40;105992;1274;108040;-68
2022/02/01 04:40:15;;;;;;;25.50;8.40;;;;;;;0.20;69.22;98088.41;106049;1274;98570;-69
2022/02/01 04:42:43;;;;;;;25.30;8.00;;;;;;;0.18;69.14;98093.55;106044;1274;97866;-69
2022/02/01 04:45:16;;;;;;;25.90;7.60;;;;;;;0.18;69.17;98102.80;106057;1274;111550;-69
2022/02/01 04:47:46;;;;;;;27.50;7.70;;;;;;;0.18;69.24;98103.67;106089;1274;95617;-70
2022/02/01 04:50:18;;;;;;;25.80;7.00;;;;;;;0.18;69.32;98106.65;106004;1274;109074;-70
2022/02/01 04:52:49;;;;;;;24.30;7.30;;;;;;;0.16;69.17;98108.80;106075;1276;97992;-67
2022/02/01 04:55:18;;;;;;;26.00;8.50;;;;;;;0.12;69.02;98102.70;106109;1274;97951;-68
2022/02/01 04:57:54;;;;;;;21.20;7.50;;;;;;;0.10;69.14;98102.41;106102;1274;111091;-69
2022/02/01 05:00:25;;;;;;;26.20;8.30;;;;;;;0.11;69.24;98106.23;106113;1274;97897;-68
2022/02/01 05:02:55;;;;;;;23.40;7.90;;;;;;;0.12;69.21;98106.54;106042;1274;108209;-68
2022/02/01 05:05:30;;;;;;;27.90;8.10;;;;;;;0.11;69.18;98106.04;107920;1274;95801;-67
2022/02/01 05:08:04;;;;;;;28.10;8.20;;;;;;;0.11;69.24;98103.61;107831;1273;95729;-70
2022/02/01 05:10:33;;;;;;;24.30;7.50;;;;;;;0.11;69.08;98098.75;107952;1271;110414;-71
2022/02/01 05:15:51;;;;;;;23.00;9.20;;;;;;;0.08;69.05;98086.33;107786;1274;106717;-71
2022/02/01 05:18:24;;;;;;;26.90;8.70;;;;;;;0.06;68.94;98094.29;107158;1274;95880;-73
2022/02/01 05:23:24;;;;;;;25.40;9.30;;;;;;;0.05;68.91;98100.05;106120;1274;111395;-71
2022/02/01 05:25:52;;;;;;;24.00;8.10;;;;;;;0.04;69.03;98102.73;105884;1274;95340;-71
2022/02/01 05:28:20;;;;;;;25.40;8.20;;;;;;;0.01;68.94;98110.70;106011;1274;107836;-71
2022/02/01 05:30:49;;;;;;;25.20;8.80;;;;;;;-0.01;69.16;98111.52;106103;1274;97966;-69
2022/02/01 05:33:17;;;;;;;25.90;8.40;;;;;;;-0.04;69.19;98122.60;106054;1274;97869;-71
2022/02/01 05:35:44;;;;;;;26.30;7.80;;;;;;;-0.07;69.12;98126.23;106108;1274;111336;-72
2022/02/01 05:38:12;;;;;;;29.10;9.80;;;;;;;-0.10;68.96;98132.11;106089;1274;99216;-72
2022/02/01 05:40:40;;;;;;;26.30;8.70;;;;;;;-0.13;69.10;98136.59;106170;1274;105390;-70
2022/02/01 05:43:14;;;;;;;22.80;8.10;;;;;;;-0.17;68.98;98139.19;106182;1274;97977;-71
2022/02/01 05:45:43;;;;;;;25.40;8.30;;;;;;;-0.20;69.07;98145.94;106151;1274;97831;-71
2022/02/01 05:48:12;;;;;;;25.30;8.10;;;;;;;-0.23;69.00;98146.10;106135;1274;111705;-71
2022/02/01 05:50:41;;;;;;;29.90;9.90;;;;;;;-0.27;69.15;98145.55;106041;1274;97873;-73
2022/02/01 05:53:09;;;;;;;30.50;12.10;;;;;;;-0.31;68.93;98141.55;106195;1274;107743;-72
2022/02/01 05:55:37;;;;;;;35.40;13.40;;;;;;;-0.35;69.14;98138.59;106158;1274;97965;-72
2022/02/01 05:58:05;;;;;;;37.20;15.30;;;;;;;-0.40;69.05;98143.86;106060;1274;95212;-74
2022/02/01 06:00:34;;;;;;;37.20;15.80;;;;;;;-0.44;68.99;98152.73;106099;1274;111472;-71
2022/02/01 06:03:02;;;;;;;38.50;14.00;;;;;;;-0.49;68.98;98162.00;106072;1274;95231;-72
2022/02/01 06:05:30;;;;;;;39.80;14.40;;;;;;;-0.54;69.02;98174.23;106011;1274;107830;-73
2022/02/01 06:07:59;;;;;;;34.70;13.20;;;;;;;-0.60;68.97;98177.23;106079;1274;98605;-74
2022/02/01 06:10:28;;;;;;;42.90;13.90;;;;;;;-0.63;68.98;98174.95;106131;1274;96305;-70
2022/02/01 06:12:57;;;;;;;37.20;14.00;;;;;;;-0.65;69.07;98177.11;106013;1275;111381;-71
2022/02/01 06:15:28;;;;;;;36.70;13.40;;;;;;;-0.67;69.12;98186.77;106246;1274;95214;-71
2022/02/01 06:17:56;;;;;;;37.00;12.30;;;;;;;-0.71;68.71;98195.29;106122;1274;107718;-71
2022/02/01 06:20:25;;;;;;;38.40;13.10;;;;;;;-0.75;69.08;98201.17;106120;1274;97881;-69
2022/02/01 06:22:53;;;;;;;35.60;9.90;;;;;;;-0.78;68.93;98212.59;106171;1274;97957;-71
2022/02/01 06:25:42;;;;;;;29.00;10.80;;;;;;;-0.79;68.91;98217.54;106103;1274;111554;-71
2022/02/01 06:28:08;;;;;;;34.10;11.80;;;;;;;-0.80;68.83;98226.44;106060;1274;97864;-71
2022/02/01 06:30:36;;;;;;;39.00;12.20;;;;;;;-0.80;68.79;98233.23;106091;1274;107567;-71
2022/02/01 06:33:04;;;;;;;32.10;11.60;;;;;;;-0.79;69.07;98235.84;106088;1274;97937;-70
2022/02/01 06:35:32;;;;;;;34.60;11.60;;;;;;;-0.78;68.78;98238.23;106002;1276;97009;-72
2022/02/01 06:38:00;;;;;;;43.30;14.10;;;;;;;-0.78;68.94;98242.21;106077;1274;111420;-71
2022/02/01 06:40:28;;;;;;;35.30;12.70;;;;;;;-0.77;68.89;98250.20;106151;1274;95184;-70
2022/02/01 06:42:57;;;;;;;43.30;16.20;;;;;;;-0.77;68.92;98249.84;106122;1274;106500;-70
2022/02/01 06:45:27;;;;;;;42.90;13.50;;;;;;;-0.76;68.86;98250.13;106116;1274;98095;-71
2022/02/01 06:47:56;;;;;;;38.10;12.90;;;;;;;-0.72;68.78;98254.72;106029;1274;97963;-69
2022/02/01 06:50:24;;;;;;;36.60;14.30;;;;;;;-0.72;68.80;98256.78;106049;1274;111459;-70
2022/02/01 06:52:57;;;;;;;41.00;15.70;;;;;;;-0.71;69.02;98255.71;106105;1274;97895;-70
2022/02/01 06:58:04;;;;;;;39.90;13.90;;;;;;;-0.71;68.91;98267.89;106068;1273;97829;-73
2022/02/01 07:00:32;;;;;;;41.80;14.30;;;;;;;-0.71;68.82;98277.82;106087;1274;97861;-71
2022/02/01 07:03:00;;;;;;;33.40;14.10;;;;;;;-0.69;68.78;98288.88;106099;1274;111414;-73
2022/02/01 07:05:28;;;;;;;39.90;13.90;;;;;;;-0.66;68.91;98290.70;106115;1274;97969;-73
2022/02/01 07:07:56;;;;;;;38.50;13.80;;;;;;;-0.66;68.83;98286.84;106087;1274;107738;-74
2022/02/01 07:10:24;;;;;;;37.70;14.20;;;;;;;-0.66;68.88;98284.59;105971;1274;96586;-73
2022/02/01 07:12:52;;;;;;;39.70;13.50;;;;;;;-0.66;68.67;98290.84;105998;1274;97735;-72
2022/02/01 07:15:20;;;;;;;40.00;13.30;;;;;;;-0.68;68.71;98290.41;106019;1274;111405;-71
2022/02/01 07:17:49;;;;;;;41.30;15.90;;;;;;;-0.67;68.93;98288.98;106103;1272;97950;-72
2022/02/01 07:20:19;;;;;;;37.80;14.30;;;;;;;-0.66;68.65;98283.36;106010;1274;107755;-70
2022/02/01 07:22:49;;;;;;;41.60;15.70;;;;;;;-0.63;68.90;98282.38;106146;1274;97960;-72
2022/02/01 07:27:52;;;;;;;46.40;16.60;;;;;;;-0.58;68.78;98284.44;106125;1273;111488;-72
2022/02/01 07:30:27;;;;;;;41.60;16.40;;;;;;;-0.55;69.02;98287.45;106122;1274;98535;-72
2022/02/01 07:32:57;;;;;;;43.10;16.20;;;;;;;-0.52;69.02;98291.36;106090;1274;107571;-74
2022/02/01 07:35:26;;;;;;;42.70;15.90;;;;;;;-0.51;68.97;98288.35;106097;1274;97982;-73
2022/02/01 07:37:55;;;;;;;45.00;15.90;;;;;;;-0.49;68.92;98287.73;106001;1274;97899;-72
2022/02/01 07:40:23;;;;;;;50.20;17.30;;;;;;;-0.45;69.20;98282.90;105971;1274;111482;-73
2022/02/01 07:42:51;;;;;;;43.30;15.70;;;;;;;-0.41;69.16;98281.70;106107;1274;97772;-72
2022/02/01 07:45:23;;;;;;;37.90;15.20;;;;;;;-0.38;68.90;98278.79;106094;1274;107756;-71
2022/02/01 07:47:53;;;;;;;42.90;17.00;;;;;;;-0.37;69.18;98270.17;106101;1274;97977;-73
2022/02/01 07:50:21;;;;;;;43.20;16.30;;;;;;;-0.33;68.92;98268.45;106174;1274;98492;-71
2022/02/01 07:52:49;;;;;;;42.40;15.90;;;;;;;-0.32;68.94;98266.84;106018;1274;111431;-71
2022/02/01 07:55:17;;;;;;;40.50;16.50;;;;;;;-0.28;69.04;98272.11;106099;1274;96392;-73
2022/02/01 07:57:45;;;;;;;40.20;16.20;;;;;;;-0.26;69.11;98270.80;106068;1274;107748;-72
2022/02/01 08:00:14;;;;;;;42.50;17.30;;;;;;;-0.25;69.08;98272.17;106072;1274;95300;-72
2022/02/01 08:02:50;;;;;;;44.30;18.30;;;;;;;-0.22;69.09;98278.31;106110;1274;98441;-70
2022/02/01 08:05:19;;;;;;;55.50;20.00;;;;;;;-0.20;69.15;98277.84;106131;1274;112304;-72
2022/02/01 08:07:47;;;;;;;46.20;18.40;;;;;;;-0.15;69.21;98275.05;106028;1274;97979;-72
2022/02/01 08:10:17;;;;;;;36.90;16.60;;;;;;;-0.12;69.34;98282.05;105986;1274;108514;-72
2022/02/01 08:17:56;;;;;;;44.40;16.90;;;;;;;-0.02;69.28;98286.18;105962;1274;110401;-71
2022/02/01 08:20:29;;;;;;;45.20;16.60;;;;;;;0.04;69.30;98297.08;106054;1274;97883;-71
2022/02/01 08:23:02;;;;;;;33.00;14.00;;;;;;;0.07;69.18;98303.57;106072;1274;107771;-70
2022/02/01 08:25:34;;;;;;;41.10;14.20;;;;;;;0.11;69.07;98306.37;106094;1274;97960;-70
2022/02/01 08:28:07;;;;;;;39.10;14.60;;;;;;;0.10;69.15;98303.45;106089;1274;97861;-70
2022/02/01 08:30:34;;;;;;;45.40;15.30;;;;;;;0.09;69.04;98308.73;106071;1274;111364;-70
2022/02/01 08:33:04;;;;;;;42.30;16.70;;;;;;;0.12;69.20;98308.27;106070;1274;97847;-71
2022/02/01 08:35:32;;;;;;;42.80;14.90;;;;;;;0.18;69.14;98305.05;106108;1274;107772;-71
2022/02/01 08:38:17;;;;;;;36.50;14.40;;;;;;;0.22;69.16;98304.55;106158;1274;97950;-70
2022/02/01 08:40:48;;;;;;;35.70;12.20;;;;;;;0.24;69.05;98300.41;106314;1274;97857;-72
2022/02/01 08:43:18;;;;;;;41.70;15.20;;;;;;;0.20;68.99;98297.46;106206;1274;112674;-72
2022/02/01 08:45:48;;;;;;;43.10;15.80;;;;;;;0.17;69.00;98291.66;106159;1274;98698;-72
2022/02/01 08:48:17;;;;;;;46.40;16.70;;;;;;;0.14;68.99;98290.56;106119;1274;107715;-73
2022/02/01 08:50:45;;;;;;;42.70;16.50;;;;;;;0.16;68.98;98292.59;106214;1274;95239;-72
2022/02/01 08:53:18;;;;;;;34.40;13.80;;;;;;;0.19;69.11;98292.99;106169;1274;97857;-72
2022/02/01 08:58:27;;;;;;;42.10;15.20;;;;;;;0.34;69.09;98292.17;106137;1274;99038;-72
2022/02/01 09:00:55;;;;;;;44.50;15.80;;;;;;;0.36;68.93;98290.50;106116;1274;106451;-71
2022/02/01 09:03:27;;;;;;;42.50;15.60;;;;;;;0.38;68.97;98289.20;105968;1274;97866;-72
2022/02/01 09:05:55;;;;;;;39.40;15.40;;;;;;;0.47;69.03;98286.52;105961;1274;97870;-71
2022/02/01 09:08:23;;;;;;;37.90;14.10;;;;;;;0.66;69.19;98293.91;106102;1274;111334;-72
2022/02/01 09:10:52;;;;;;;37.00;14.00;;;;;;;0.84;69.20;98304.30;105944;1274;97963;-71
2022/02/01 09:13:20;;;;;;;33.10;11.00;;;;;;;1.06;69.16;98309.74;106050;1274;107646;-72
2022/02/01 09:15:48;;;;;;;28.00;9.10;;;;;;;1.18;69.02;98305.70;105876;1274;98081;-71
2022/02/01 09:18:16;;;;;;;29.00;8.40;;;;;;;1.29;68.62;98300.98;106065;1274;97856;-72
2022/02/01 09:20:45;;;;;;;25.50;7.50;;;;;;;1.47;68.54;98300.69;106153;1274;111380;-73
2022/02/01 09:23:13;;;;;;;24.90;8.40;;;;;;;1.56;68.55;98295.20;106097;1274;97874;-73
2022/02/01 09:25:44;;;;;;;28.70;9.10;;;;;;;1.61;68.96;98295.46;106111;1274;107598;-73
2022/02/01 09:28:12;;;;;;;26.40;7.80;;;;;;;1.72;68.28;98292.84;106116;1274;98387;-71
2022/02/01 09:30:40;;;;;;;22.30;7.60;;;;;;;1.72;68.17;98292.98;106177;1274;96344;-73
2022/02/01 09:33:08;;;;;;;26.90;8.10;;;;;;;1.72;68.63;98287.76;106014;1276;111318;-71
2022/02/01 09:35:36;;;;;;;27.50;8.10;;;;;;;1.78;68.96;98297.27;106052;1274;97954;-72
2022/02/01 09:38:04;;;;;;;24.00;7.30;;;;;;;2.02;68.69;98304.70;106172;1274;107553;-71
2022/02/01 09:40:49;;;;;;;20.80;7.60;;;;;;;2.10;68.52;98303.04;106013;1274;98382;-72
2022/02/01 09:43:17;;;;;;;31.00;8.40;;;;;;;2.07;68.69;98297.41;106073;1274;96100;-72
2022/02/01 09:45:45;;;;;;;23.50;7.50;;;;;;;2.23;68.54;98296.63;106049;1274;111380;-70
2022/02/01 09:48:33;;;;;;;29.00;10.90;;;;;;;2.48;68.48;98307.58;106041;1274;97755;-72
2022/02/01 09:51:04;;;;;;;25.60;7.40;;;;;;;2.63;68.59;98311.58;106114;1273;106207;-72
2022/02/01 09:53:32;;;;;;;24.40;7.60;;;;;;;2.70;68.56;98304.55;106150;1274;98592;-72
2022/02/01 09:56:01;;;;;;;19.10;7.20;;;;;;;2.75;68.44;98294.64;106268;1274;95362;-73
2022/02/01 09:58:34;;;;;;;21.90;6.20;;;;;;;2.81;67.72;98292.73;106156;1274;111314;-71
2022/02/01 10:01:18;;;;;;;25.10;6.90;;;;;;;2.74;67.59;98295.91;106181;1274;97951;-72
2022/02/01 10:03:58;;;;;;;;;;;;;;;2.56;67.33;98298.45;106118;1274;107445;-74
2022/02/01 10:06:41;;;;;;;;;;;;;;;2.27;67.46;98296.41;106187;1274;95270;-73
2022/02/01 10:09:30;;;;;;;21.50;6.90;;;;;;;2.02;68.08;98289.97;106072;1274;95369;-72
2022/02/01 10:11:57;;;;;;;22.60;7.60;;;;;;;1.91;67.29;98293.32;106114;1274;111473;-73
2022/02/01 10:14:39;;;;;;;21.50;6.60;;;;;;;1.83;67.97;98291.60;106185;1274;97896;-72
2022/02/01 10:17:09;;;;;;;22.20;7.20;;;;;;;1.81;67.83;98295.40;106065;1274;107984;-74
2022/02/01 10:19:48;;;;;;;18.30;5.60;;;;;;;1.79;67.79;98291.27;106132;1273;97944;-73
2022/02/01 10:22:16;;;;;;;20.60;6.00;;;;;;;1.73;67.59;98286.16;106136;1274;97797;-75
2022/02/01 10:24:44;;;;;;;22.50;6.80;;;;;;;1.68;67.83;98275.75;106064;1274;111809;-74
2022/02/01 10:27:18;;;;;;;21.90;7.10;;;;;;;1.67;67.82;98270.02;106076;1274;95178;-75
2022/02/01 10:30:00;;;;;;;23.90;6.00;;;;;;;1.60;67.39;98267.19;106099;1274;107787;-73
2022/02/01 10:32:51;;;;;;;23.20;6.70;;;;;;;1.54;67.51;98270.64;106083;1274;99013;-73
2022/02/01 10:35:33;;;;;;;18.60;6.00;;;;;;;1.51;67.57;98268.01;106104;1274;97877;-73
2022/02/01 10:38:08;;;;;;;;;;;;;;;1.52;67.52;98271.98;106093;1274;111406;-72
2022/02/01 10:40:38;;;;;;;27.50;7.30;;;;;;;1.53;67.39;98275.08;106080;1274;97874;-71
2022/02/01 10:43:34;;;;;;;26.10;8.70;;;;;;;1.54;67.48;98274.84;106061;1274;107738;-72
2022/02/01 10:46:07;;;;;;;28.00;8.30;;;;;;;1.58;67.42;98272.20;105970;1274;97870;-73
2022/02/01 10:48:38;;;;;;;29.30;8.50;;;;;;;1.58;67.19;98270.63;105990;1274;97872;-72
2022/02/01 10:51:13;;;;;;;29.70;10.40;;;;;;;1.60;67.25;98267.02;106037;1274;111282;-70
2022/02/01 10:53:48;;;;;;;23.80;8.50;;;;;;;1.62;67.47;98265.52;106184;1271;97960;-72
2022/02/01 10:56:19;;;;;;;25.80;8.60;;;;;;;1.64;66.83;98264.73;106071;1274;107800;-72
2022/02/01 10:58:49;;;;;;;30.00;9.90;;;;;;;1.62;66.73;98261.86;105979;1274;96463;-72
2022/02/01 11:01:26;;;;;;;28.30;9.50;;;;;;;1.61;67.24;98255.98;105953;1274;97922;-76
2022/02/01 11:03:59;;;;;;;26.20;10.30;;;;;;;1.59;66.73;98258.50;106081;1274;111393;-72
2022/02/01 11:06:33;;;;;;;29.00;10.30;;;;;;;1.55;66.61;98255.40;106113;1274;97719;-73
2022/02/01 11:09:00;;;;;;;31.00;10.60;;;;;;;1.56;66.80;98259.73;106103;1274;106919;-72
2022/02/01 11:11:28;;;;;;;33.90;11.70;;;;;;;1.60;66.74;98256.73;106096;1274;97946;-73
2022/02/01 11:13:56;;;;;;;29.90;10.70;;;;;;;1.62;67.06;98261.51;106162;1274;97920;-71
2022/02/01 11:16:27;;;;;;;31.70;11.50;;;;;;;1.64;66.07;98253.70;106159;1274;111034;-74
2022/02/01 11:19:02;;;;;;;25.20;8.10;;;;;;;1.61;64.98;98252.83;106122;1274;95188;-72
2022/02/01 11:21:44;;;;;;;28.40;9.10;;;;;;;1.57;66.11;98251.63;106006;1274;106822;-72
2022/02/01 11:24:31;;;;;;;27.70;9.10;;;;;;;1.54;66.05;98246.69;106042;1274;97875;-71
2022/02/01 11:27:19;;;;;;;24.90;8.20;;;;;;;1.52;66.20;98246.98;106218;1274;97870;-71
2022/02/01 11:32:36;;;;;;;26.50;9.10;;;;;;;1.57;66.53;98237.14;106073;1274;97976;-71
2022/02/01 11:35:21;;;;;;;24.20;8.40;;;;;;;1.60;66.10;98244.52;106040;1274;107659;-72
2022/02/01 11:38:21;;;;;;;28.60;10.20;;;;;;;1.54;66.09;98247.05;106116;1274;97868;-73
2022/02/01 11:41:01;;;;;;;30.80;10.60;;;;;;;1.53;65.95;98245.34;106027;1274;98599;-73
2022/02/01 11:43:41;;;;;;;27.70;8.60;;;;;;;1.53;66.00;98247.97;105971;1274;110927;-72
2022/02/01 11:46:17;;;;;;;22.20;8.10;;;;;;;1.47;65.45;98252.42;106059;1274;97868;-72
2022/02/01 11:48:52;;;;;;;24.90;9.70;;;;;;;1.41;65.90;98251.51;105916;1274;108564;-73
2022/02/01 11:51:41;;;;;;;25.90;8.70;;;;;;;1.31;65.64;98246.23;106152;1274;97959;-73
2022/02/01 11:54:12;;;;;;;28.20;9.40;;;;;;;1.20;64.80;98240.13;106167;1274;97946;-74
2022/02/01 11:56:41;;;;;;;27.40;9.10;;;;;;;1.12;65.50;98237.54;106042;1274;111553;-73
2022/02/01 11:59:14;;;;;;;26.20;10.10;;;;;;;1.09;65.59;98233.49;106089;1274;97984;-71
2022/02/01 12:01:44;;;;;;;33.00;11.50;;;;;;;1.09;65.71;98235.92;105915;1274;108393;-73
2022/02/01 12:04:17;;;;;;;32.70;11.40;;;;;;;1.08;65.78;98235.77;105878;1274;97949;-75
2022/02/01 12:06:55;;;;;;;36.80;12.50;;;;;;;1.07;65.63;98241.41;105983;1274;98080;-72
2022/02/01 12:09:24;;;;;;;31.60;12.30;;;;;;;1.06;65.46;98235.89;105946;1274;109845;-72
2022/02/01 12:11:59;;;;;;;34.40;12.00;;;;;;;1.08;65.61;98230.56;105979;1274;95937;-73
2022/02/01 12:14:28;;;;;;;34.90;11.80;;;;;;;1.10;65.64;98230.83;106050;1274;107724;-72
2022/02/01 12:16:58;;;;;;;34.40;13.40;;;;;;;1.12;65.79;98227.60;105934;1274;97844;-73
2022/02/01 12:19:44;;;;;;;28.00;10.00;;;;;;;1.18;65.75;98222.40;106099;1274;95906;-72
2022/02/01 12:22:50;;;;;;;33.00;12.50;;;;;;;1.21;65.45;98211.80;106130;1274;111962;-72
2022/02/01 12:25:18;;;;;;;34.60;12.70;;;;;;;1.21;65.89;98210.59;106006;1274;97879;-72
2022/02/01 12:27:45;;;;;;;34.60;12.90;;;;;;;1.24;65.93;98207.97;106081;1274;107776;-72
2022/02/01 12:30:13;;;;;;;36.30;12.20;;;;;;;1.29;65.72;98204.92;106196;1274;97901;-73
2022/02/01 12:32:55;;;;;;;30.60;12.80;;;;;;;1.32;65.49;98206.69;106232;1274;96602;-72
2022/02/01 12:35:36;;;;;;;32.00;10.50;;;;;;;1.37;65.92;98209.29;106030;1274;111342;-73
2022/02/01 12:38:20;;;;;;;28.90;12.50;;;;;;;1.46;65.74;98203.23;105923;1275;97874;-72
2022/02/01 12:41:00;;;;;;;40.50;15.10;;;;;;;1.56;65.26;98202.76;105997;1274;107822;-74
2022/02/01 12:43:42;;;;;;;31.20;12.30;;;;;;;1.62;65.26;98198.09;105979;1274;97875;-72
2022/02/01 12:46:31;;;;;;;34.40;12.70;;;;;;;1.66;65.46;98200.34;106093;1274;97884;-71
2022/02/01 12:49:36;;;;;;;36.00;13.60;;;;;;;1.72;65.37;98201.78;106108;1274;111172;-72
2022/02/01 12:52:23;;;;;;;32.10;13.20;;;;;;;1.79;65.14;98202.29;106089;1274;95634;-72
2022/02/01 12:55:04;;;;;;;34.50;12.00;;;;;;;1.88;64.71;98197.63;106002;1274;108025;-72
2022/02/01 12:57:35;;;;;;;35.40;12.10;;;;;;;1.92;64.43;98192.73;105994;1274;95277;-72
2022/02/01 13:00:21;;;;;;;35.90;12.20;;;;;;;1.87;64.33;98190.69;106031;1274;97883;-72
2022/02/01 13:03:03;;;;;;;31.00;10.90;;;;;;;1.79;64.50;98183.06;106036;1274;110997;-72
2022/02/01 13:05:35;;;;;;;30.50;11.40;;;;;;;1.73;64.80;98184.96;106001;1274;97986;-72
2022/02/01 13:16:35;;;;;;;38.40;14.60;;;;;;;1.69;65.07;98170.64;105969;1274;111743;-72